createdAt,value
2018-07-26T00:00:48.737Z,82.87
2018-07-26T00:01:49.310Z,82.73
2018-07-26T00:02:49.897Z,82.83
2018-07-26T00:03:50.464Z,82.83
2018-07-26T00:04:51.034Z,83.41
2018-07-26T00:05:51.591Z,83.31
2018-07-26T00:06:52.147Z,83.12
2018-07-26T00:07:52.704Z,83.89
2018-07-26T00:08:53.261Z,83.51
2018-07-26T00:09:53.851Z,83.61
2018-07-26T00:10:54.379Z,83.61
2018-07-26T00:11:54.927Z,83.41
2018-07-26T00:12:55.480Z,83.41
2018-07-26T00:13:56.039Z,83.75
2018-07-26T00:14:56.595Z,84.05
2018-07-26T00:15:57.150Z,84.53
2018-07-26T00:16:57.713Z,84.82
2018-07-26T00:17:58.272Z,84.14
2018-07-26T00:18:58.830Z,84.05
2018-07-26T00:19:59.386Z,84.05
2018-07-26T00:20:59.943Z,84.72
2018-07-26T00:22:00.494Z,84.53
2018-07-26T00:23:01.051Z,84.43
2018-07-26T00:24:01.608Z,84.53
2018-07-26T00:25:02.167Z,85.21
2018-07-26T00:26:02.723Z,84.82
2018-07-26T00:27:03.281Z,84.82
2018-07-26T00:28:03.833Z,85.30
2018-07-26T00:29:04.380Z,85.40
2018-07-26T00:30:04.943Z,85.40
2018-07-26T00:31:05.495Z,85.11
2018-07-26T00:32:06.053Z,85.30
2018-07-26T00:33:06.608Z,85.30
2018-07-26T00:34:07.156Z,85.40
2018-07-26T00:35:07.713Z,85.21
2018-07-26T00:36:08.267Z,85.40
2018-07-26T00:37:08.823Z,85.40
2018-07-26T00:38:09.378Z,84.82
2018-07-26T00:39:09.934Z,85.40
2018-07-26T00:40:10.498Z,85.40
2018-07-26T00:41:11.055Z,85.11
2018-07-26T00:42:11.610Z,85.78
2018-07-26T00:43:12.156Z,85.69
2018-07-26T00:44:12.712Z,85.74
2018-07-26T00:45:13.267Z,85.59
2018-07-26T00:46:13.827Z,86.32
2018-07-26T00:47:14.380Z,86.52
2018-07-26T00:48:14.938Z,86.71
2018-07-26T00:49:15.499Z,86.71
2018-07-26T00:50:16.056Z,86.71
2018-07-26T00:51:16.612Z,87.00
2018-07-26T00:52:17.170Z,87.09
2018-07-26T00:53:17.726Z,87.48
2018-07-26T00:54:18.283Z,87.38
2018-07-26T00:55:18.840Z,87.38
2018-07-26T00:56:19.401Z,87.29
2018-07-26T00:57:19.955Z,87.19
2018-07-26T00:58:20.511Z,87.19
2018-07-26T00:59:21.068Z,87.00
2018-07-26T01:00:21.625Z,87.67
2018-07-26T01:01:22.187Z,87.77
2018-07-26T01:02:22.745Z,87.82
2018-07-26T01:03:23.302Z,87.63
2018-07-26T01:04:23.852Z,87.53
2018-07-26T01:05:24.408Z,86.96
2018-07-26T01:06:24.965Z,87.63
2018-07-26T01:07:25.519Z,87.73
2018-07-26T01:08:26.119Z,88.02
2018-07-26T01:09:26.725Z,88.59
2018-07-26T01:10:27.232Z,88.31
2018-07-26T01:11:27.793Z,88.11
2018-07-26T01:12:28.351Z,88.21
2018-07-26T01:13:28.905Z,89.27
2018-07-26T01:14:29.457Z,88.40
2018-07-26T01:15:30.014Z,88.31
2018-07-26T01:16:30.572Z,88.11
2018-07-26T01:17:31.130Z,88.31
2018-07-26T01:18:31.681Z,88.21
2018-07-26T01:19:32.236Z,88.21
2018-07-26T01:20:32.792Z,88.59
2018-07-26T01:21:33.348Z,88.59
2018-07-26T01:22:33.907Z,88.93
2018-07-26T01:23:34.465Z,88.69
2018-07-26T01:24:35.012Z,88.89
2018-07-26T01:25:35.570Z,89.32
2018-07-26T01:26:36.126Z,89.47
2018-07-26T01:27:36.684Z,89.07
2018-07-26T01:28:37.233Z,88.65
2018-07-26T01:29:37.790Z,88.55
2018-07-26T01:30:38.341Z,88.69
2018-07-26T01:31:38.897Z,89.03
2018-07-26T01:32:39.461Z,88.69
2018-07-26T01:33:40.006Z,88.79
2018-07-26T01:34:40.560Z,88.69
2018-07-26T01:35:41.114Z,88.98
2018-07-26T01:36:41.672Z,88.89
2018-07-26T01:37:42.230Z,88.84
2018-07-26T01:38:42.787Z,88.55
2018-07-26T01:39:43.342Z,88.93
2018-07-26T01:40:43.899Z,88.93
2018-07-26T01:41:44.474Z,88.75
2018-07-26T01:42:45.012Z,88.84
2018-07-26T01:43:45.569Z,88.93
2018-07-26T01:44:46.127Z,88.55
2018-07-26T01:45:46.682Z,89.42
2018-07-26T01:46:47.235Z,88.84
2018-07-26T01:47:47.785Z,88.93
2018-07-26T01:48:48.341Z,88.55
2018-07-26T01:49:48.892Z,88.65
2018-07-26T01:50:49.442Z,88.93
2018-07-26T01:51:50.000Z,89.03
2018-07-26T01:52:50.555Z,88.36
2018-07-26T01:53:51.109Z,88.75
2018-07-26T01:54:51.664Z,88.84
2018-07-26T01:55:52.213Z,89.32
2018-07-26T01:56:52.772Z,89.32
2018-07-26T01:57:53.325Z,89.71
2018-07-26T01:58:53.873Z,89.90
2018-07-26T01:59:54.424Z,89.51
2018-07-26T02:00:54.980Z,90.00
2018-07-26T02:01:55.538Z,90.77
2018-07-26T02:02:56.097Z,90.63
2018-07-26T02:03:56.651Z,90.92
2018-07-26T02:04:57.207Z,91.30
2018-07-26T02:05:57.763Z,91.88
2018-07-26T02:06:58.314Z,92.08
2018-07-26T02:07:58.875Z,91.88
2018-07-26T02:08:59.433Z,92.08
2018-07-26T02:09:59.982Z,92.08
2018-07-26T02:11:00.539Z,92.27
2018-07-26T02:12:01.098Z,92.22
2018-07-26T02:13:01.653Z,92.08
2018-07-26T02:14:02.212Z,92.27
2018-07-26T02:15:02.768Z,92.22
2018-07-26T02:16:03.326Z,92.13
2018-07-26T02:17:03.876Z,92.41
2018-07-26T02:18:04.432Z,92.36
2018-07-26T02:19:05.004Z,92.46
2018-07-26T02:20:05.538Z,92.56
2018-07-26T02:21:06.104Z,92.41
2018-07-26T02:22:06.649Z,92.51
2018-07-26T02:23:07.210Z,92.41
2018-07-26T02:24:07.765Z,92.51
2018-07-26T02:25:08.318Z,92.71
2018-07-26T02:26:08.876Z,92.61
2018-07-26T02:27:09.434Z,92.32
2018-07-26T02:28:09.994Z,92.13
2018-07-26T02:29:10.545Z,92.32
2018-07-26T02:30:11.104Z,92.03
2018-07-26T02:31:11.729Z,92.13
2018-07-26T02:32:12.207Z,92.61
2018-07-26T02:33:12.767Z,92.71
2018-07-26T02:34:13.324Z,92.61
2018-07-26T02:35:13.872Z,92.71
2018-07-26T02:36:14.431Z,92.41
2018-07-26T02:37:14.988Z,92.51
2018-07-26T02:38:15.556Z,92.71
2018-07-26T02:39:16.097Z,92.41
2018-07-26T02:40:16.656Z,92.71
2018-07-26T02:41:17.210Z,92.22
2018-07-26T02:42:17.760Z,92.61
2018-07-26T02:43:18.313Z,92.61
2018-07-26T02:44:18.871Z,92.71
2018-07-26T02:45:19.429Z,92.61
2018-07-26T02:46:19.988Z,92.41
2018-07-26T02:47:20.542Z,92.41
2018-07-26T02:48:21.091Z,92.41
2018-07-26T02:49:21.647Z,92.80
2018-07-26T02:50:22.205Z,92.99
2018-07-26T02:51:22.763Z,93.38
2018-07-26T02:52:23.379Z,94.34
2018-07-26T02:53:23.877Z,94.39
2018-07-26T02:54:24.433Z,94.20
2018-07-26T02:55:24.983Z,94.15
2018-07-26T02:56:25.540Z,94.29
2018-07-26T02:57:26.094Z,94.44
2018-07-26T02:58:26.654Z,94.73
2018-07-26T02:59:27.209Z,94.34
2018-07-26T03:00:27.763Z,94.10
2018-07-26T03:01:28.317Z,94.29
2018-07-26T03:02:28.866Z,94.34
2018-07-26T03:03:29.424Z,94.29
2018-07-26T03:04:29.976Z,94.10
2018-07-26T03:05:30.532Z,93.81
2018-07-26T03:06:31.091Z,94.29
2018-07-26T03:07:31.649Z,94.39
2018-07-26T03:08:32.206Z,94.78
2018-07-26T03:09:32.751Z,94.97
2018-07-26T03:10:33.316Z,94.68
2018-07-26T03:11:33.864Z,94.78
2018-07-26T03:12:34.413Z,94.49
2018-07-26T03:13:34.973Z,94.68
2018-07-26T03:14:35.519Z,94.73
2018-07-26T03:15:36.075Z,94.68
2018-07-26T03:16:36.627Z,94.63
2018-07-26T03:17:37.184Z,94.29
2018-07-26T03:18:37.742Z,94.10
2018-07-26T03:19:38.295Z,94.10
2018-07-26T03:20:38.856Z,94.01
2018-07-26T03:21:39.409Z,94.29
2018-07-26T03:22:39.967Z,94.78
2018-07-26T03:23:40.523Z,94.73
2018-07-26T03:24:41.081Z,95.36
2018-07-26T03:25:41.639Z,94.82
2018-07-26T03:26:42.193Z,95.31
2018-07-26T03:27:42.752Z,95.50
2018-07-26T03:28:43.308Z,95.40
2018-07-26T03:29:43.859Z,95.31
2018-07-26T03:30:44.416Z,95.11
2018-07-26T03:31:44.975Z,94.73
2018-07-26T03:32:45.529Z,94.82
2018-07-26T03:33:46.087Z,95.31
2018-07-26T03:34:46.643Z,95.07
2018-07-26T03:35:47.202Z,95.45
2018-07-26T03:36:47.762Z,95.26
2018-07-26T03:37:48.320Z,95.45
2018-07-26T03:38:48.884Z,95.64
2018-07-26T03:39:49.441Z,95.94
2018-07-26T03:40:49.998Z,96.12
2018-07-26T03:41:50.559Z,96.32
2018-07-26T03:42:51.124Z,96.42
2018-07-26T03:43:51.680Z,96.32
2018-07-26T03:44:52.228Z,96.22
2018-07-26T03:45:52.789Z,96.89
2018-07-26T03:46:53.347Z,96.80
2018-07-26T03:47:53.908Z,96.99
2018-07-26T03:48:54.464Z,96.99
2018-07-26T03:49:55.016Z,96.85
2018-07-26T03:50:55.573Z,96.61
2018-07-26T03:51:56.138Z,96.75
2018-07-26T03:52:56.695Z,96.80
2018-07-26T03:53:57.248Z,96.99
2018-07-26T03:54:57.799Z,96.80
2018-07-26T03:55:58.353Z,96.03
2018-07-26T03:56:58.908Z,96.80
2018-07-26T03:57:59.471Z,96.75
2018-07-26T03:59:00.041Z,97.42
2018-07-26T04:00:00.583Z,97.14
2018-07-26T04:01:01.146Z,97.42
2018-07-26T04:02:01.707Z,97.72
2018-07-26T04:03:02.261Z,97.42
2018-07-26T04:04:02.823Z,97.24
2018-07-26T04:05:03.385Z,97.52
2018-07-26T04:06:03.935Z,97.04
2018-07-26T04:07:04.494Z,97.04
2018-07-26T04:08:05.054Z,97.33
2018-07-26T04:09:05.611Z,97.52
2018-07-26T04:10:06.168Z,97.24
2018-07-26T04:11:06.735Z,97.52
2018-07-26T04:12:07.290Z,96.94
2018-07-26T04:13:07.849Z,96.85
2018-07-26T04:14:08.427Z,97.52
2018-07-26T04:15:08.968Z,97.24
2018-07-26T04:16:09.525Z,97.57
2018-07-26T04:17:10.084Z,96.66
2018-07-26T04:18:10.648Z,96.75
2018-07-26T04:19:11.204Z,97.42
2018-07-26T04:20:11.781Z,97.33
2018-07-26T04:21:12.322Z,97.42
2018-07-26T04:22:12.878Z,97.42
2018-07-26T04:23:13.429Z,97.52
2018-07-26T04:24:13.981Z,97.91
2018-07-26T04:25:14.534Z,97.33
2018-07-26T04:26:15.096Z,97.42
2018-07-26T04:27:15.655Z,97.09
2018-07-26T04:28:16.215Z,97.28
2018-07-26T04:29:16.776Z,96.80
2018-07-26T04:30:17.337Z,96.80
2018-07-26T04:31:17.900Z,96.32
2018-07-26T04:32:18.453Z,96.89
2018-07-26T04:33:19.012Z,96.42
2018-07-26T04:34:19.571Z,96.42
2018-07-26T04:35:20.128Z,96.03
2018-07-26T04:36:20.691Z,96.32
2018-07-26T04:37:21.249Z,96.32
2018-07-26T04:38:21.803Z,95.74
2018-07-26T04:39:22.364Z,96.03
2018-07-26T04:40:22.925Z,96.12
2018-07-26T04:41:23.487Z,96.03
2018-07-26T04:42:24.041Z,96.27
2018-07-26T04:43:24.599Z,96.27
2018-07-26T04:44:25.161Z,95.69
2018-07-26T04:45:25.718Z,95.50
2018-07-26T04:46:26.288Z,94.87
2018-07-26T04:47:26.842Z,94.39
2018-07-26T04:48:27.397Z,94.24
2018-07-26T04:49:27.962Z,94.24
2018-07-26T04:50:28.523Z,92.70
2018-07-26T04:51:29.089Z,92.16
2018-07-26T04:52:29.652Z,91.73
2018-07-26T04:53:30.212Z,91.01
2018-07-26T04:54:30.813Z,89.85
2018-07-26T04:55:31.329Z,89.41
2018-07-26T04:56:31.894Z,88.89
2018-07-26T04:57:32.458Z,89.27
2018-07-26T04:58:33.021Z,90.05
2018-07-26T04:59:33.577Z,89.95
2018-07-26T05:00:34.141Z,89.99
2018-07-26T05:01:34.708Z,88.64
2018-07-26T05:02:35.273Z,88.25
2018-07-26T05:03:35.836Z,88.64
2018-07-26T05:04:36.397Z,88.87
2018-07-26T05:05:36.956Z,88.49
2018-07-26T05:06:37.520Z,87.66
2018-07-26T05:07:38.082Z,86.41
2018-07-26T05:08:38.651Z,85.97
2018-07-26T05:09:39.215Z,85.00
2018-07-26T05:11:23.942Z,85.10
2018-07-26T05:12:24.515Z,84.84
2018-07-26T05:13:25.111Z,84.17
2018-07-26T05:14:25.684Z,83.25
2018-07-26T05:15:26.259Z,83.40
2018-07-26T05:16:26.832Z,83.05
2018-07-26T05:17:27.406Z,82.95
2018-07-26T05:18:27.977Z,82.18
2018-07-26T05:19:28.525Z,82.23
2018-07-26T05:20:29.091Z,83.01
2018-07-26T05:21:29.662Z,83.55
2018-07-26T05:22:30.229Z,84.13
2018-07-26T05:23:30.791Z,85.10
2018-07-26T05:24:31.352Z,84.17
2018-07-26T05:25:31.915Z,83.78
2018-07-26T05:26:32.474Z,83.64
2018-07-26T05:27:33.042Z,84.32
2018-07-26T05:28:33.608Z,83.94
2018-07-26T05:29:34.172Z,84.67
2018-07-26T05:30:34.739Z,85.15
2018-07-26T05:31:35.304Z,85.25
2018-07-26T05:32:35.873Z,85.35
2018-07-26T05:33:36.436Z,85.35
2018-07-26T05:34:36.999Z,84.95
2018-07-26T05:35:37.564Z,85.35
2018-07-26T05:36:38.130Z,85.73
2018-07-26T05:37:38.698Z,85.87
2018-07-26T05:38:39.250Z,85.29
2018-07-26T05:39:39.808Z,84.90
2018-07-26T05:40:40.376Z,84.61
2018-07-26T05:41:40.940Z,84.46
2018-07-26T05:42:41.497Z,84.66
2018-07-26T05:43:42.055Z,83.98
2018-07-26T05:44:42.622Z,84.17
2018-07-26T05:45:43.181Z,84.08
2018-07-26T05:46:43.742Z,84.27
2018-07-26T05:47:44.308Z,83.88
2018-07-26T05:48:44.876Z,84.17
2018-07-26T05:49:45.449Z,84.66
2018-07-26T05:50:46.009Z,84.36
2018-07-26T05:51:46.574Z,85.14
2018-07-26T05:52:47.142Z,85.72
2018-07-26T05:53:47.709Z,85.42
2018-07-26T05:54:48.273Z,85.72
2018-07-26T05:55:48.840Z,85.62
2018-07-26T05:56:49.406Z,85.82
2018-07-26T05:57:49.975Z,85.52
2018-07-26T05:58:50.537Z,85.37
2018-07-26T05:59:51.104Z,85.18
2018-07-26T06:00:51.670Z,85.66
2018-07-26T06:01:52.235Z,85.37
2018-07-26T06:02:52.803Z,85.37
2018-07-26T06:03:53.370Z,85.28
2018-07-26T06:04:53.943Z,85.28
2018-07-26T06:05:54.505Z,84.89
2018-07-26T06:06:55.073Z,84.60
2018-07-26T06:07:55.638Z,84.31
2018-07-26T06:08:56.209Z,84.35
2018-07-26T06:09:56.778Z,84.45
2018-07-26T06:10:57.346Z,84.06
2018-07-26T06:11:57.902Z,84.45
2018-07-26T06:12:58.467Z,83.58
2018-07-26T06:13:59.031Z,83.18
2018-07-26T06:14:59.600Z,83.38
2018-07-26T06:16:00.172Z,83.28
2018-07-26T06:17:00.737Z,83.09
2018-07-26T06:18:01.307Z,83.09
2018-07-26T06:19:01.875Z,83.09
2018-07-26T06:20:02.441Z,83.48
2018-07-26T06:21:03.012Z,83.48
2018-07-26T06:22:03.580Z,83.00
2018-07-26T06:23:04.144Z,83.03
2018-07-26T06:24:04.710Z,82.84
2018-07-26T06:25:05.277Z,82.94
2018-07-26T06:26:05.842Z,82.35
2018-07-26T06:27:06.404Z,82.65
2018-07-26T06:28:06.992Z,82.30
2018-07-26T06:29:07.552Z,81.72
2018-07-26T06:30:08.112Z,81.04
2018-07-26T06:31:08.706Z,81.13
2018-07-26T06:32:09.252Z,81.04
2018-07-26T06:33:09.816Z,81.27
2018-07-26T06:34:10.382Z,80.98
2018-07-26T06:35:10.945Z,80.30
2018-07-26T06:36:11.505Z,80.21
2018-07-26T06:37:12.081Z,80.40
2018-07-26T06:38:12.644Z,80.40
2018-07-26T06:39:13.216Z,79.96
2018-07-26T06:40:13.782Z,79.96
2018-07-26T06:41:14.343Z,78.89
2018-07-26T06:42:14.921Z,79.41
2018-07-26T06:43:15.492Z,79.02
2018-07-26T06:44:16.061Z,78.05
2018-07-26T06:45:16.631Z,78.15
2018-07-26T06:46:17.216Z,78.25
2018-07-26T06:47:17.769Z,78.09
2018-07-26T06:48:18.334Z,77.99
2018-07-26T06:49:18.905Z,77.25
2018-07-26T06:50:19.472Z,76.97
2018-07-26T06:51:20.039Z,76.12
2018-07-26T06:52:20.614Z,75.62
2018-07-26T06:53:21.179Z,74.16
2018-07-26T06:54:21.750Z,74.16
2018-07-26T06:55:22.361Z,74.29
2018-07-26T06:56:22.894Z,72.31
2018-07-26T06:57:23.463Z,72.55
2018-07-26T06:58:24.038Z,71.25
2018-07-26T06:59:24.617Z,67.48
2018-07-26T07:00:25.188Z,67.05
2018-07-26T07:01:25.760Z,66.20
2018-07-26T07:02:26.343Z,64.70
2018-07-26T07:03:26.907Z,62.98
2018-07-26T07:04:27.485Z,62.32
2018-07-26T07:05:28.069Z,62.12
2018-07-26T07:06:28.636Z,62.32
2018-07-26T07:07:29.211Z,62.32
2018-07-26T07:08:29.780Z,62.71
2018-07-26T07:09:30.355Z,62.35
2018-07-26T07:10:30.926Z,59.31
2018-07-26T07:11:31.500Z,58.65
2018-07-26T07:12:32.079Z,59.95
2018-07-26T07:13:32.659Z,58.94
2018-07-26T07:14:33.225Z,55.99
2018-07-26T07:15:33.793Z,57.49
2018-07-26T07:16:34.359Z,57.10
2018-07-26T07:17:34.934Z,57.51
2018-07-26T07:18:35.510Z,57.25
2018-07-26T07:19:36.083Z,56.69
2018-07-26T07:20:36.685Z,54.28
2018-07-26T07:21:37.240Z,54.30
2018-07-26T07:22:37.823Z,54.70
2018-07-26T07:23:38.395Z,52.04
2018-07-26T07:24:38.975Z,52.33
2018-07-26T07:25:39.558Z,52.95
2018-07-26T07:26:40.135Z,51.37
2018-07-26T07:27:40.746Z,51.28
2018-07-26T07:28:41.294Z,51.15
2018-07-26T07:29:41.878Z,53.13
2018-07-26T07:30:42.458Z,53.42
2018-07-26T07:31:43.032Z,51.42
2018-07-26T07:32:43.610Z,52.43
2018-07-26T07:33:44.191Z,50.76
2018-07-26T07:34:44.766Z,52.21
2018-07-26T07:35:45.346Z,52.31
2018-07-26T07:36:45.924Z,51.12
2018-07-26T07:37:46.497Z,50.26
2018-07-26T07:38:47.065Z,48.96
2018-07-26T07:39:47.687Z,49.73
2018-07-26T07:40:48.230Z,51.59
2018-07-26T07:41:48.845Z,52.70
2018-07-26T07:42:49.374Z,51.92
2018-07-26T07:43:49.949Z,51.45
2018-07-26T07:44:50.531Z,51.15
2018-07-26T07:45:51.111Z,48.49
2018-07-26T07:46:51.691Z,47.21
2018-07-26T07:47:52.269Z,47.58
2018-07-26T07:48:52.848Z,49.06
2018-07-26T07:49:53.423Z,49.45
2018-07-26T07:50:53.996Z,47.56
2018-07-26T07:51:54.589Z,47.31
2018-07-26T07:52:55.205Z,47.80
2018-07-26T07:53:55.746Z,48.22
2018-07-26T07:54:56.315Z,48.83
2018-07-26T07:55:56.892Z,48.14
2018-07-26T07:56:57.470Z,47.66
2018-07-26T07:57:58.043Z,47.19
2018-07-26T07:58:58.622Z,47.01
2018-07-26T07:59:59.198Z,47.60
2018-07-26T08:00:59.781Z,47.70
2018-07-26T08:02:00.361Z,48.91
2018-07-26T08:03:00.943Z,46.86
2018-07-26T08:04:01.526Z,46.07
2018-07-26T08:05:02.106Z,47.55
2018-07-26T08:06:02.689Z,46.88
2018-07-26T08:07:03.268Z,45.79
2018-07-26T08:08:03.853Z,45.78
2018-07-26T08:09:04.431Z,46.04
2018-07-26T08:10:05.012Z,46.15
2018-07-26T08:11:05.589Z,45.83
2018-07-26T08:12:06.168Z,45.85
2018-07-26T08:13:06.746Z,45.46
2018-07-26T08:14:07.325Z,45.65
2018-07-26T08:15:07.898Z,45.78
2018-07-26T08:16:08.476Z,45.32
2018-07-26T08:17:09.060Z,44.39
2018-07-26T08:18:09.662Z,44.20
2018-07-26T08:19:10.214Z,44.96
2018-07-26T08:20:10.791Z,44.79
2018-07-26T08:21:11.370Z,44.55
2018-07-26T08:22:11.953Z,45.34
2018-07-26T08:23:12.531Z,44.55
2018-07-26T08:24:13.103Z,44.76
2018-07-26T08:25:13.680Z,44.94
2018-07-26T08:26:14.265Z,45.36
2018-07-26T08:27:14.836Z,44.76
2018-07-26T08:28:15.414Z,44.37
2018-07-26T08:29:16.001Z,44.18
2018-07-26T08:30:16.576Z,43.78
2018-07-26T08:31:17.152Z,44.37
2018-07-26T08:32:17.731Z,44.29
2018-07-26T08:33:18.311Z,44.27
2018-07-26T08:34:18.891Z,44.35
2018-07-26T08:35:19.469Z,43.88
2018-07-26T08:36:20.049Z,44.00
2018-07-26T08:37:20.626Z,43.73
2018-07-26T08:38:21.208Z,43.52
2018-07-26T08:39:21.785Z,42.76
2018-07-26T08:40:22.355Z,42.58
2018-07-26T08:41:22.936Z,42.46
2018-07-26T08:42:23.526Z,42.60
2018-07-26T08:43:24.095Z,42.30
2018-07-26T08:44:24.672Z,44.80
2018-07-26T08:45:25.250Z,45.68
2018-07-26T08:46:25.828Z,41.95
2018-07-26T08:47:26.405Z,42.25
2018-07-26T08:48:26.978Z,42.36
2018-07-26T08:49:27.549Z,41.60
2018-07-26T08:50:28.129Z,41.08
2018-07-26T08:51:28.711Z,40.58
2018-07-26T08:52:29.290Z,41.25
2018-07-26T08:53:29.876Z,41.36
2018-07-26T08:54:30.448Z,41.25
2018-07-26T08:55:31.029Z,40.96
2018-07-26T08:56:31.603Z,41.36
2018-07-26T08:57:32.185Z,41.28
2018-07-26T08:58:32.764Z,41.18
2018-07-26T08:59:33.342Z,40.88
2018-07-26T09:00:33.923Z,41.25
2018-07-26T09:01:34.502Z,41.44
2018-07-26T09:02:35.094Z,41.91
2018-07-26T09:03:35.659Z,42.08
2018-07-26T09:04:36.239Z,41.91
2018-07-26T09:05:36.837Z,42.11
2018-07-26T09:06:37.405Z,42.13
2018-07-26T09:07:37.986Z,41.75
2018-07-26T09:08:38.568Z,41.57
2018-07-26T09:09:39.145Z,41.38
2018-07-26T09:10:39.723Z,41.18
2018-07-26T09:11:40.382Z,41.55
2018-07-26T09:12:40.883Z,41.25
2018-07-26T09:13:41.516Z,41.55
2018-07-26T09:14:42.035Z,41.65
2018-07-26T09:15:42.617Z,41.16
2018-07-26T09:16:43.198Z,41.28
2018-07-26T09:17:43.779Z,40.98
2018-07-26T09:18:44.354Z,41.08
2018-07-26T09:19:44.950Z,41.57
2018-07-26T09:20:45.511Z,41.18
2018-07-26T09:21:46.092Z,40.29
2018-07-26T09:22:46.670Z,40.20
2018-07-26T09:23:47.252Z,40.33
2018-07-26T09:24:47.831Z,40.41
2018-07-26T09:25:48.412Z,40.19
2018-07-26T09:26:48.997Z,41.16
2018-07-26T09:27:49.571Z,41.24
2018-07-26T09:28:50.187Z,41.73
2018-07-26T09:29:50.732Z,41.36
2018-07-26T09:30:51.303Z,41.16
2018-07-26T09:31:51.884Z,40.96
2018-07-26T09:32:52.493Z,40.96
2018-07-26T09:33:53.048Z,41.47
2018-07-26T09:34:53.631Z,40.96
2018-07-26T09:35:54.210Z,41.06
2018-07-26T09:36:54.786Z,41.33
2018-07-26T09:37:55.366Z,41.25
2018-07-26T09:38:55.937Z,40.78
2018-07-26T09:39:56.516Z,40.68
2018-07-26T09:40:57.093Z,40.29
2018-07-26T09:41:57.671Z,41.08
2018-07-26T09:42:58.251Z,40.58
2018-07-26T09:43:58.830Z,40.50
2018-07-26T09:44:59.413Z,40.11
2018-07-26T09:45:59.986Z,39.61
2018-07-26T09:47:00.563Z,40.56
2018-07-26T09:48:01.146Z,40.58
2018-07-26T09:49:01.723Z,39.99
2018-07-26T09:50:02.301Z,40.37
2018-07-26T09:51:02.882Z,40.48
2018-07-26T09:52:03.473Z,40.01
2018-07-26T09:53:04.045Z,39.91
2018-07-26T09:54:04.634Z,39.42
2018-07-26T09:55:05.217Z,39.31
2018-07-26T09:56:05.789Z,39.22
2018-07-26T09:57:06.371Z,39.23
2018-07-26T09:58:06.949Z,39.04
2018-07-26T09:59:07.530Z,39.23
2018-07-26T10:00:08.117Z,38.84
2018-07-26T10:01:08.675Z,38.94
2018-07-26T10:02:09.254Z,38.96
2018-07-26T10:03:09.835Z,38.46
2018-07-26T10:04:10.416Z,37.96
2018-07-26T10:05:10.998Z,37.60
2018-07-26T10:06:11.578Z,37.41
2018-07-26T10:08:27.622Z,37.94
2018-07-26T10:09:28.193Z,37.92
2018-07-26T10:10:28.778Z,37.52
2018-07-26T10:11:29.352Z,37.30
2018-07-26T10:12:29.926Z,37.39
2018-07-26T10:13:30.509Z,37.79
2018-07-26T10:14:31.093Z,37.39
2018-07-26T10:15:31.673Z,37.37
2018-07-26T10:16:32.254Z,36.98
2018-07-26T10:17:32.835Z,37.57
2018-07-26T10:18:33.411Z,37.47
2018-07-26T10:19:33.989Z,37.19
2018-07-26T10:20:34.562Z,37.29
2018-07-26T10:21:35.254Z,37.96
2018-07-26T10:22:35.737Z,37.96
2018-07-26T10:23:36.344Z,37.75
2018-07-26T10:24:36.948Z,37.27
2018-07-26T10:25:37.535Z,37.59
2018-07-26T10:26:38.111Z,37.49
2018-07-26T10:27:38.720Z,37.17
2018-07-26T10:28:39.265Z,37.87
2018-07-26T10:29:39.847Z,37.93
2018-07-26T10:30:40.432Z,38.03
2018-07-26T10:31:41.011Z,37.85
2018-07-26T10:32:41.588Z,37.67
2018-07-26T10:33:42.164Z,37.37
2018-07-26T10:34:42.744Z,37.27
2018-07-26T10:35:43.327Z,37.37
2018-07-26T10:36:43.900Z,37.39
2018-07-26T10:37:44.476Z,37.57
2018-07-26T10:38:45.050Z,38.44
2018-07-26T10:39:45.628Z,38.11
2018-07-26T10:40:46.208Z,38.01
2018-07-26T10:41:46.784Z,38.03
2018-07-26T10:42:47.364Z,37.35
2018-07-26T10:43:47.941Z,37.37
2018-07-26T10:44:48.542Z,37.85
2018-07-26T10:45:49.102Z,37.51
2018-07-26T10:46:49.680Z,38.31
2018-07-26T10:47:50.263Z,38.31
2018-07-26T10:48:50.844Z,38.80
2018-07-26T10:49:51.432Z,38.19
2018-07-26T10:50:52.005Z,38.59
2018-07-26T10:51:52.584Z,38.51
2018-07-26T10:52:53.160Z,38.32
2018-07-26T10:53:53.735Z,37.65
2018-07-26T10:54:54.316Z,37.24
2018-07-26T10:55:54.896Z,37.60
2018-07-26T10:56:55.474Z,37.89
2018-07-26T10:57:56.056Z,38.01
2018-07-26T10:58:56.634Z,38.01
2018-07-26T10:59:57.206Z,37.89
2018-07-26T11:00:57.782Z,37.91
2018-07-26T11:01:58.369Z,37.15
2018-07-26T11:02:58.932Z,37.15
2018-07-26T11:03:59.508Z,36.40
2018-07-26T11:05:00.085Z,36.56
2018-07-26T11:06:00.662Z,36.96
2018-07-26T11:07:01.236Z,36.98
2018-07-26T11:08:01.816Z,36.69
2018-07-26T11:09:02.392Z,36.38
2018-07-26T11:10:02.967Z,36.32
2018-07-26T11:11:03.545Z,35.74
2018-07-26T11:12:04.121Z,35.83
2018-07-26T11:13:04.704Z,35.83
2018-07-26T11:14:05.284Z,36.13
2018-07-26T11:15:05.894Z,35.74
2018-07-26T11:16:06.439Z,35.83
2018-07-26T11:17:07.020Z,35.64
2018-07-26T11:18:07.629Z,35.74
2018-07-26T11:19:08.225Z,35.66
2018-07-26T11:20:08.785Z,35.55
2018-07-26T11:21:09.368Z,34.43
2018-07-26T11:22:09.953Z,34.61
2018-07-26T11:23:10.530Z,34.52
2018-07-26T11:24:11.152Z,35.03
2018-07-26T11:25:11.686Z,34.55
2018-07-26T11:26:12.284Z,34.56
2018-07-26T11:27:12.844Z,34.48
2018-07-26T11:28:13.473Z,34.38
2018-07-26T11:29:14.052Z,34.58
2018-07-26T11:30:14.623Z,35.16
2018-07-26T11:31:15.201Z,35.10
2018-07-26T11:32:15.774Z,35.19
2018-07-26T11:33:16.352Z,34.58
2018-07-26T11:34:16.931Z,34.66
2018-07-26T11:35:17.501Z,35.06
2018-07-26T11:36:18.081Z,34.66
2018-07-26T11:37:18.660Z,35.06
2018-07-26T11:38:19.237Z,34.46
2018-07-26T11:39:19.819Z,34.55
2018-07-26T11:40:20.402Z,34.94
2018-07-26T11:41:20.997Z,34.76
2018-07-26T11:42:21.559Z,34.96
2018-07-26T11:43:22.140Z,34.38
2018-07-26T11:44:22.719Z,33.40
2018-07-26T11:45:23.296Z,33.20
2018-07-26T11:46:23.875Z,33.44
2018-07-26T11:47:24.490Z,33.35
2018-07-26T11:48:25.068Z,33.37
2018-07-26T11:49:25.649Z,33.85
2018-07-26T11:50:26.224Z,33.75
2018-07-26T11:51:26.806Z,33.72
2018-07-26T11:52:27.386Z,34.41
2018-07-26T11:53:27.966Z,34.46
2018-07-26T11:54:28.544Z,34.55
2018-07-26T11:55:29.124Z,34.33
2018-07-26T11:56:29.696Z,34.34
2018-07-26T11:57:30.273Z,34.46
2018-07-26T11:58:30.852Z,34.56
2018-07-26T11:59:31.426Z,34.48
2018-07-26T12:00:32.009Z,34.28
2018-07-26T12:01:32.588Z,33.90
2018-07-26T12:02:33.193Z,34.22
2018-07-26T12:03:33.735Z,33.23
2018-07-26T12:04:34.308Z,33.23
2018-07-26T12:05:34.887Z,33.34
2018-07-26T12:06:35.467Z,33.73
2018-07-26T12:07:36.165Z,34.13
2018-07-26T12:08:36.744Z,33.93
2018-07-26T12:09:37.322Z,32.42
2018-07-26T12:10:37.903Z,33.02
2018-07-26T12:11:38.488Z,32.62
2018-07-26T12:12:39.066Z,32.21
2018-07-26T12:13:39.664Z,32.23
2018-07-26T12:14:40.243Z,32.82
2018-07-26T12:15:40.831Z,32.60
2018-07-26T12:16:41.403Z,32.23
2018-07-26T12:17:42.006Z,32.14
2018-07-26T12:18:42.555Z,32.06
2018-07-26T12:19:43.146Z,31.67
2018-07-26T12:20:43.721Z,31.39
2018-07-26T12:21:44.298Z,31.21
2018-07-26T12:22:44.877Z,30.80
2018-07-26T12:23:45.457Z,31.01
2018-07-26T12:24:46.036Z,31.32
2018-07-26T12:25:46.624Z,30.72
2018-07-26T12:26:47.268Z,30.63
2018-07-26T12:27:47.792Z,30.24
2018-07-26T12:28:48.367Z,30.04
2018-07-26T12:29:48.970Z,30.80
2018-07-26T12:30:49.552Z,31.19
2018-07-26T12:31:50.136Z,31.18
2018-07-26T12:32:50.717Z,31.77
2018-07-26T12:33:51.297Z,32.15
2018-07-26T12:34:51.880Z,31.86
2018-07-26T12:35:52.518Z,31.53
2018-07-26T12:36:53.023Z,32.38
2018-07-26T12:37:53.603Z,32.94
2018-07-26T12:38:54.180Z,33.22
2018-07-26T12:39:54.811Z,33.82
2018-07-26T12:40:55.388Z,33.34
2018-07-26T12:41:55.965Z,32.97
2018-07-26T12:42:56.550Z,32.78
2018-07-26T12:43:57.118Z,32.60
2018-07-26T12:44:57.699Z,32.04
2018-07-26T12:45:58.276Z,31.66
2018-07-26T12:46:58.858Z,31.74
2018-07-26T12:47:59.438Z,31.96
2018-07-26T12:49:00.022Z,31.96
2018-07-26T12:50:00.595Z,32.14
2018-07-26T12:51:01.174Z,31.64
2018-07-26T12:52:01.759Z,32.23
2018-07-26T12:53:02.335Z,32.41
2018-07-26T12:54:02.910Z,32.51
2018-07-26T12:55:03.563Z,32.23
2018-07-26T12:56:04.174Z,32.86
2018-07-26T12:57:04.653Z,32.41
2018-07-26T12:58:05.219Z,32.67
2018-07-26T12:59:05.791Z,33.15
2018-07-26T13:00:06.370Z,33.64
2018-07-26T13:01:06.948Z,34.15
2018-07-26T13:02:07.532Z,32.99